Time;durP1;ratioP1;P1;durP2;ratioP2;P2;SDS_P1;SDS_P2;PMS_P1;PMS_P2;Temp;Humidity;BMP_temperature;BMP_pressure;BME280_temperature;BME280_humidity;BME280_pressure;Samples;Min_cycle;Max_cycle;Signal;HPM_P1;HPM_P2
2023/10/20 00:00:43;;;;;;;12.17;7.50;;;12.50;99.90;;;;;;5084312;28;20246;-58
2023/10/20 00:03:09;;;;;;;12.10;6.60;;;12.50;99.90;;;;;;5081334;28;20515;-59
2023/10/20 00:05:35;;;;;;;11.00;6.90;;;12.50;99.90;;;;;;5070793;28;20439;-59
2023/10/20 00:08:02;;;;;;;11.13;6.00;;;12.50;99.90;;;;;;5077115;28;20233;-58
2023/10/20 00:10:31;;;;;;;18.83;5.97;;;12.50;99.90;;;;;;5083973;28;20182;-58
2023/10/20 00:12:59;;;;;;;6.77;5.47;;;12.50;99.90;;;;;;5082130;28;20515;-59
2023/10/20 00:15:25;;;;;;;8.50;5.33;;;12.50;99.90;;;;;;5079598;28;21263;-59
2023/10/20 00:17:51;;;;;;;8.23;5.83;;;12.50;99.90;;;;;;5083143;28;21105;-59
2023/10/20 00:20:16;;;;;;;10.10;5.37;;;12.50;99.90;;;;;;5081490;28;20432;-57
2023/10/20 00:22:42;;;;;;;9.93;6.47;;;12.40;99.90;;;;;;5082494;28;20193;-58
2023/10/20 00:25:10;;;;;;;11.93;5.90;;;12.40;99.90;;;;;;5082300;28;20769;-60
2023/10/20 00:27:37;;;;;;;7.07;5.33;;;12.40;99.90;;;;;;5080199;28;20575;-58
2023/10/20 00:30:03;;;;;;;9.00;5.73;;;12.40;99.90;;;;;;5086380;28;20424;-58
2023/10/20 00:32:30;;;;;;;9.77;5.60;;;12.40;99.90;;;;;;5085875;28;20454;-58
2023/10/20 00:34:57;;;;;;;8.83;6.30;;;12.40;99.90;;;;;;5087321;28;20290;-59
2023/10/20 00:37:23;;;;;;;15.33;6.63;;;12.40;99.90;;;;;;5087464;28;20454;-58
2023/10/20 00:39:49;;;;;;;9.73;5.70;;;12.40;99.90;;;;;;5084231;28;20587;-58
2023/10/20 00:42:14;;;;;;;10.40;6.53;;;12.40;99.90;;;;;;5088323;28;20460;-58
2023/10/20 00:44:40;;;;;;;11.60;5.77;;;12.40;99.90;;;;;;5088143;28;20356;-58
2023/10/20 00:47:06;;;;;;;7.60;6.03;;;12.40;99.90;;;;;;5085550;28;20648;-59
2023/10/20 00:49:32;;;;;;;9.20;5.87;;;12.40;99.90;;;;;;5076295;28;20173;-58
2023/10/20 00:51:59;;;;;;;6.60;5.70;;;12.40;99.90;;;;;;5085421;28;20420;-59
2023/10/20 00:54:25;;;;;;;7.67;4.83;;;12.30;99.90;;;;;;5084892;28;20197;-58
2023/10/20 00:56:52;;;;;;;5.57;5.00;;;12.30;99.90;;;;;;5087432;28;20851;-58
2023/10/20 00:59:18;;;;;;;7.80;4.57;;;12.30;99.90;;;;;;5086508;28;20194;-59
2023/10/20 01:01:44;;;;;;;7.40;5.17;;;12.30;99.90;;;;;;5082385;28;20534;-58
2023/10/20 01:04:09;;;;;;;6.00;4.90;;;12.30;99.90;;;;;;5078717;28;20861;-58
2023/10/20 01:06:36;;;;;;;7.37;4.80;;;12.30;99.90;;;;;;5081560;28;20177;-58
2023/10/20 01:09:03;;;;;;;6.70;4.67;;;12.30;99.90;;;;;;5086292;28;20198;-57
2023/10/20 01:11:29;;;;;;;5.17;4.63;;;12.20;99.90;;;;;;5080987;28;20433;-58
2023/10/20 01:13:56;;;;;;;10.63;4.97;;;12.20;99.90;;;;;;5081159;28;20416;-58
2023/10/20 01:16:23;;;;;;;7.60;4.90;;;12.20;99.90;;;;;;5076328;28;20837;-58
2023/10/20 01:18:49;;;;;;;8.13;4.30;;;12.20;99.90;;;;;;5081582;28;20509;-59
2023/10/20 01:21:15;;;;;;;6.23;4.53;;;12.20;99.90;;;;;;5084573;28;20969;-58
2023/10/20 01:23:41;;;;;;;8.00;4.50;;;12.20;99.90;;;;;;5084273;28;20455;-59
2023/10/20 01:26:07;;;;;;;17.43;5.33;;;12.20;99.90;;;;;;5079412;28;21008;-57
2023/10/20 01:28:33;;;;;;;4.90;4.40;;;12.20;99.90;;;;;;5080563;28;20206;-57
2023/10/20 01:30:59;;;;;;;14.27;4.90;;;12.20;99.90;;;;;;5082390;28;20946;-58
2023/10/20 01:33:25;;;;;;;5.77;5.10;;;12.20;99.90;;;;;;5084164;28;20182;-58
2023/10/20 01:35:51;;;;;;;14.87;5.77;;;12.20;99.90;;;;;;5081461;28;20182;-58
2023/10/20 01:38:17;;;;;;;7.53;5.17;;;12.20;99.90;;;;;;5085903;28;20451;-57
2023/10/20 01:40:44;;;;;;;5.93;5.20;;;12.20;99.90;;;;;;5079682;28;20238;-58
2023/10/20 01:43:10;;;;;;;9.17;5.33;;;12.10;99.90;;;;;;5084712;28;20442;-58
2023/10/20 01:45:36;;;;;;;6.77;5.40;;;12.10;99.90;;;;;;5088640;28;20412;-59
2023/10/20 01:48:01;;;;;;;9.23;5.30;;;12.10;99.90;;;;;;5087549;28;20749;-57
2023/10/20 01:50:27;;;;;;;6.60;5.13;;;12.10;99.90;;;;;;5081007;28;20177;-58
2023/10/20 01:52:52;;;;;;;11.87;5.77;;;12.10;99.90;;;;;;5076142;28;20198;-58
2023/10/20 01:55:18;;;;;;;6.83;4.93;;;12.10;99.90;;;;;;5088148;28;20181;-58
2023/10/20 01:57:43;;;;;;;7.43;5.27;;;12.10;99.90;;;;;;5087811;28;20190;-57
2023/10/20 02:00:13;;;;;;;10.90;5.33;;;12.10;99.90;;;;;;5087188;28;20184;-58
2023/10/20 02:02:39;;;;;;;8.40;5.53;;;12.10;99.90;;;;;;5078569;28;20183;-59
2023/10/20 02:05:08;;;;;;;6.13;5.17;;;12.10;99.90;;;;;;5080215;28;20463;-58
2023/10/20 02:07:34;;;;;;;9.20;5.00;;;12.10;99.90;;;;;;5093970;28;20475;-56
2023/10/20 02:09:59;;;;;;;16.43;6.10;;;12.20;99.90;;;;;;5083134;28;20518;-58
2023/10/20 02:12:25;;;;;;;9.17;5.20;;;12.10;99.90;;;;;;5077720;28;21080;-58
2023/10/20 02:14:51;;;;;;;5.00;4.27;;;12.10;99.90;;;;;;5077482;28;20174;-58
2023/10/20 02:17:16;;;;;;;5.50;4.17;;;12.10;99.90;;;;;;5083536;28;20196;-58
2023/10/20 02:19:42;;;;;;;6.80;4.73;;;12.10;99.90;;;;;;5082060;28;20213;-56
2023/10/20 02:22:07;;;;;;;8.13;5.30;;;12.10;99.90;;;;;;5083915;28;20174;-57
2023/10/20 02:24:33;;;;;;;6.70;4.90;;;12.10;99.90;;;;;;5085941;28;20205;-59
2023/10/20 02:26:59;;;;;;;7.20;4.60;;;12.10;99.90;;;;;;5083537;28;20181;-59
2023/10/20 02:29:24;;;;;;;11.30;5.33;;;12.10;99.90;;;;;;5077112;28;20182;-58
2023/10/20 02:31:50;;;;;;;7.97;4.93;;;12.10;99.90;;;;;;5087443;28;20284;-57
2023/10/20 02:34:16;;;;;;;6.53;5.23;;;12.10;99.90;;;;;;5084587;28;21647;-58
2023/10/20 02:36:42;;;;;;;5.30;4.77;;;12.10;99.90;;;;;;5078755;28;20185;-58
2023/10/20 02:39:08;;;;;;;8.13;5.07;;;12.10;99.90;;;;;;5083818;28;20206;-57
2023/10/20 02:41:33;;;;;;;10.93;5.00;;;12.10;99.90;;;;;;5083821;28;20431;-59
2023/10/20 02:43:59;;;;;;;5.90;4.43;;;12.10;99.90;;;;;;5094609;28;20224;-58
2023/10/20 02:46:25;;;;;;;6.23;4.90;;;12.10;99.90;;;;;;5078763;28;20166;-58
2023/10/20 02:48:50;;;;;;;7.67;4.50;;;12.10;99.90;;;;;;5084683;28;20285;-58
2023/10/20 02:51:17;;;;;;;8.73;5.00;;;12.10;99.90;;;;;;5086528;28;20182;-59
2023/10/20 02:53:43;;;;;;;4.80;4.10;;;12.10;99.90;;;;;;5088217;28;20204;-58
2023/10/20 02:56:12;;;;;;;6.33;4.63;;;12.10;99.90;;;;;;5088988;28;21297;-58
2023/10/20 02:58:38;;;;;;;4.80;4.00;;;12.10;99.90;;;;;;5090736;28;20447;-58
2023/10/20 03:01:07;;;;;;;6.33;4.23;;;12.10;99.90;;;;;;5083901;28;20507;-58
2023/10/20 03:03:33;;;;;;;7.53;4.33;;;12.10;99.90;;;;;;5089797;28;20463;-57
2023/10/20 03:06:01;;;;;;;8.63;5.00;;;12.10;99.90;;;;;;5082045;28;20428;-58
2023/10/20 03:08:28;;;;;;;5.90;4.20;;;12.10;99.90;;;;;;5091799;28;20455;-59
2023/10/20 03:10:54;;;;;;;12.97;4.20;;;12.10;99.90;;;;;;5082247;28;20426;-59
2023/10/20 03:13:20;;;;;;;5.67;5.07;;;12.10;99.90;;;;;;5091420;28;21965;-59
2023/10/20 03:15:45;;;;;;;5.10;4.40;;;12.10;99.90;;;;;;5094913;28;20280;-57
2023/10/20 03:18:14;;;;;;;7.53;4.40;;;12.10;99.90;;;;;;5087880;28;20201;-57
2023/10/20 03:20:40;;;;;;;6.30;4.80;;;12.10;99.90;;;;;;5077372;28;20662;-59
2023/10/20 03:23:05;;;;;;;6.60;5.20;;;12.10;99.90;;;;;;5084798;28;20855;-58
2023/10/20 03:25:33;;;;;;;5.20;4.70;;;12.10;99.90;;;;;;5090759;28;20629;-58
2023/10/20 03:27:59;;;;;;;7.30;4.77;;;12.10;99.90;;;;;;5088073;28;20281;-58
2023/10/20 03:30:24;;;;;;;7.17;5.40;;;12.20;99.90;;;;;;5090533;28;20415;-58
2023/10/20 03:32:50;;;;;;;8.10;4.93;;;12.20;99.90;;;;;;5088122;28;20174;-58
2023/10/20 03:35:16;;;;;;;7.70;5.10;;;12.20;99.90;;;;;;5085653;28;20174;-57
2023/10/20 03:37:41;;;;;;;7.80;4.70;;;12.30;99.90;;;;;;5086483;28;20806;-58
2023/10/20 03:40:13;;;;;;;7.07;4.70;;;12.30;99.90;;;;;;5088382;28;20174;-59
2023/10/20 03:42:41;;;;;;;10.20;5.33;;;12.30;99.90;;;;;;5085899;28;20170;-57
2023/10/20 03:45:09;;;;;;;5.43;3.70;;;12.30;99.90;;;;;;5087911;28;20465;-59
2023/10/20 03:47:38;;;;;;;6.47;4.20;;;12.30;99.90;;;;;;5083493;28;20440;-59
2023/10/20 03:50:14;;;;;;;8.73;4.13;;;12.30;99.90;;;;;;5085030;28;21805;-58
2023/10/20 03:52:41;;;;;;;8.30;4.70;;;12.30;99.90;;;;;;5082731;28;20443;-58
2023/10/20 03:55:08;;;;;;;12.93;4.70;;;12.30;99.90;;;;;;5082847;28;21204;-58
2023/10/20 03:57:34;;;;;;;6.53;4.60;;;12.30;99.90;;;;;;5085954;28;20965;-57
2023/10/20 04:00:14;;;;;;;5.07;4.57;;;12.40;99.90;;;;;;5086121;28;20426;-61
2023/10/20 04:02:40;;;;;;;8.77;4.80;;;12.40;99.90;;;;;;5084517;28;20186;-58
2023/10/20 04:05:07;;;;;;;6.37;4.90;;;12.40;99.90;;;;;;5087986;28;20486;-59
2023/10/20 04:07:33;;;;;;;13.63;5.33;;;12.40;99.90;;;;;;5087232;28;20466;-60
2023/10/20 04:09:59;;;;;;;6.93;5.50;;;12.50;99.90;;;;;;5077908;28;20438;-57
2023/10/20 04:12:27;;;;;;;6.10;4.73;;;12.50;99.90;;;;;;5086294;28;20169;-58
2023/10/20 04:14:55;;;;;;;11.93;5.37;;;12.50;99.90;;;;;;5082969;28;20463;-57
2023/10/20 04:17:21;;;;;;;7.73;5.00;;;12.60;99.90;;;;;;5084292;28;20538;-58
2023/10/20 04:19:47;;;;;;;7.80;6.10;;;12.70;99.90;;;;;;5075246;28;20672;-58
2023/10/20 04:22:13;;;;;;;6.80;4.60;;;12.70;99.90;;;;;;5069255;28;20290;-60
2023/10/20 04:24:41;;;;;;;8.67;5.20;;;12.70;99.90;;;;;;5073313;28;20217;-61
2023/10/20 04:27:20;;;;;;;5.67;4.47;;;12.70;99.90;;;;;;5075819;28;20428;-60
2023/10/20 05:02:40;;;;;;;6.00;5.00;;;12.60;99.90;;;;;;5076727;28;20434;-60
2023/10/20 05:05:26;;;;;;;7.03;4.10;;;12.60;99.90;;;;;;5079022;28;20453;-60
2023/10/20 05:07:58;;;;;;;7.67;4.67;;;12.60;99.90;;;;;;5080000;28;20470;-61
2023/10/20 05:10:24;;;;;;;6.67;4.53;;;12.60;99.90;;;;;;5079246;28;20424;-60
2023/10/20 05:12:51;;;;;;;7.83;5.03;;;12.60;99.90;;;;;;5086731;28;20463;-59
2023/10/20 05:15:17;;;;;;;5.10;4.23;;;12.60;99.90;;;;;;5081971;28;20439;-62
2023/10/20 05:17:43;;;;;;;5.80;5.07;;;12.60;99.90;;;;;;5084576;28;20451;-60
2023/10/20 05:20:19;;;;;;;6.03;4.83;;;12.60;99.90;;;;;;5087339;28;20500;-60
2023/10/20 05:22:46;;;;;;;6.20;4.40;;;12.70;99.90;;;;;;5083356;28;20427;-59
2023/10/20 05:25:12;;;;;;;8.73;4.70;;;12.70;99.90;;;;;;5081698;28;20883;-60
2023/10/20 05:27:39;;;;;;;8.27;5.00;;;12.60;99.90;;;;;;5079586;28;20452;-59
2023/10/20 05:30:05;;;;;;;7.50;5.00;;;12.70;99.90;;;;;;5084988;28;20434;-61
2023/10/20 05:32:31;;;;;;;7.83;4.67;;;12.60;99.90;;;;;;5077771;28;20430;-62
2023/10/20 05:34:59;;;;;;;6.80;5.10;;;12.70;99.90;;;;;;5080357;28;20441;-59
2023/10/20 05:37:24;;;;;;;6.33;4.93;;;12.60;99.90;;;;;;5084679;28;20459;-60
2023/10/20 05:39:50;;;;;;;8.03;4.53;;;12.60;99.90;;;;;;5082340;28;20428;-60
2023/10/20 05:42:18;;;;;;;7.40;5.03;;;12.60;99.90;;;;;;5083080;28;20256;-59
2023/10/20 05:44:58;;;;;;;7.80;5.10;;;12.60;99.90;;;;;;5077164;28;20245;-60
2023/10/20 05:47:24;;;;;;;9.70;5.30;;;12.60;99.90;;;;;;5086998;28;20518;-60
2023/10/20 05:49:50;;;;;;;6.60;5.10;;;12.60;99.90;;;;;;5078111;28;20514;-60
2023/10/20 05:52:15;;;;;;;8.50;5.40;;;12.60;99.90;;;;;;5076490;28;20436;-59
2023/10/20 05:54:42;;;;;;;8.20;4.90;;;12.60;99.90;;;;;;5088470;28;20185;-60
2023/10/20 05:57:07;;;;;;;8.70;5.53;;;12.60;99.90;;;;;;5083301;28;20804;-61
2023/10/20 05:59:33;;;;;;;8.37;5.87;;;12.50;99.90;;;;;;5082845;28;20545;-57
2023/10/20 06:01:59;;;;;;;8.17;6.10;;;12.60;99.90;;;;;;5077445;28;20180;-60
2023/10/20 06:04:24;;;;;;;7.70;5.60;;;12.60;99.90;;;;;;5075294;28;20201;-60
2023/10/20 06:06:50;;;;;;;6.67;5.60;;;12.60;99.90;;;;;;5087454;28;20196;-61
2023/10/20 06:09:16;;;;;;;13.53;6.63;;;12.50;99.90;;;;;;5082278;28;20197;-60
2023/10/20 06:11:42;;;;;;;12.87;6.23;;;12.50;99.90;;;;;;5078551;28;20218;-60
2023/10/20 06:14:07;;;;;;;7.87;5.83;;;12.50;99.90;;;;;;5081218;28;20424;-60
2023/10/20 06:16:33;;;;;;;8.90;6.40;;;12.50;99.90;;;;;;5084998;28;20432;-60
2023/10/20 06:18:59;;;;;;;14.53;6.87;;;12.50;99.90;;;;;;5081226;28;22022;-60
2023/10/20 06:21:24;;;;;;;9.37;6.70;;;12.50;99.90;;;;;;5085050;28;20197;-61
2023/10/20 06:23:50;;;;;;;10.13;6.97;;;12.50;99.90;;;;;;5080666;28;20687;-60
2023/10/20 06:26:16;;;;;;;10.50;6.93;;;12.50;99.90;;;;;;5089133;28;20197;-59
2023/10/20 06:28:43;;;;;;;11.30;7.10;;;12.50;99.90;;;;;;5087867;28;20209;-60
2023/10/20 06:31:27;;;;;;;;;;;;;;;;;;;;;
2023/10/20 06:34:00;;;;;;;11.57;8.20;;;12.40;99.90;;;;;;5084377;28;20435;-60
2023/10/20 06:36:27;;;;;;;12.10;7.90;;;12.40;99.90;;;;;;5089754;28;20423;-60
2023/10/20 06:38:52;;;;;;;12.40;8.30;;;12.40;99.90;;;;;;5091394;28;20459;-61
2023/10/20 06:41:18;;;;;;;17.13;8.57;;;12.30;99.90;;;;;;5087017;28;20424;-60
2023/10/20 06:43:44;;;;;;;15.60;8.20;;;12.40;99.90;;;;;;5084735;28;20202;-61
2023/10/20 06:46:10;;;;;;;13.13;9.50;;;12.30;99.90;;;;;;5082832;28;20553;-61
2023/10/20 06:48:35;;;;;;;18.67;9.47;;;12.30;99.90;;;;;;5087668;28;20194;-61
2023/10/20 06:51:01;;;;;;;15.80;10.83;;;12.30;99.90;;;;;;5084493;28;20296;-61
2023/10/20 06:53:28;;;;;;;20.20;11.20;;;12.30;99.90;;;;;;5084468;28;20252;-60
2023/10/20 06:55:54;;;;;;;18.83;11.00;;;12.30;99.90;;;;;;5091716;28;20413;-60
2023/10/20 06:58:20;;;;;;;19.53;11.90;;;12.30;99.90;;;;;;5084689;28;20466;-61
2023/10/20 07:00:46;;;;;;;17.17;10.30;;;12.40;99.90;;;;;;5076941;28;20522;-60
2023/10/20 07:03:13;;;;;;;16.10;11.00;;;12.40;99.90;;;;;;5080022;28;20185;-61
2023/10/20 07:05:42;;;;;;;14.57;11.37;;;12.40;99.90;;;;;;5089240;28;20474;-60
2023/10/20 07:08:08;;;;;;;16.93;10.80;;;12.40;99.90;;;;;;5085833;28;20533;-61
2023/10/20 07:10:37;;;;;;;17.70;11.53;;;12.40;99.90;;;;;;5083868;28;20519;-61
2023/10/20 07:13:06;;;;;;;21.00;12.83;;;12.40;99.90;;;;;;5082977;28;20177;-60
2023/10/20 07:15:33;;;;;;;18.57;11.63;;;12.40;99.90;;;;;;5080941;28;20435;-61
2023/10/20 07:17:59;;;;;;;19.53;12.90;;;12.40;99.90;;;;;;5075252;28;20440;-61
2023/10/20 07:20:25;;;;;;;18.80;13.00;;;12.40;99.90;;;;;;5086000;28;20632;-60
2023/10/20 07:22:51;;;;;;;17.40;12.37;;;12.40;99.90;;;;;;5079541;28;20913;-60
2023/10/20 07:25:17;;;;;;;18.17;12.63;;;12.50;99.90;;;;;;5081507;28;20334;-60
2023/10/20 07:27:43;;;;;;;19.73;13.60;;;12.50;99.90;;;;;;5083071;28;20528;-60
2023/10/20 07:30:10;;;;;;;21.47;13.37;;;12.50;99.90;;;;;;5080589;28;20428;-60
2023/10/20 07:32:36;;;;;;;19.70;13.57;;;12.50;99.90;;;;;;5078452;28;20596;-61
2023/10/20 07:35:03;;;;;;;22.67;13.07;;;12.50;99.90;;;;;;5079609;28;21690;-60
2023/10/20 07:37:29;;;;;;;20.53;13.70;;;12.60;99.90;;;;;;5076403;28;21160;-61
2023/10/20 07:39:55;;;;;;;19.13;13.70;;;12.60;99.90;;;;;;5083450;28;20533;-60
2023/10/20 07:42:20;;;;;;;18.83;13.40;;;12.60;99.90;;;;;;5082440;28;20540;-60
2023/10/20 07:44:46;;;;;;;15.93;12.03;;;12.60;99.90;;;;;;5082875;28;20250;-60
2023/10/20 07:47:12;;;;;;;18.57;12.97;;;12.60;99.90;;;;;;5081801;28;20197;-60
2023/10/20 07:49:39;;;;;;;19.57;14.13;;;12.70;99.90;;;;;;5084785;28;20949;-60
2023/10/20 07:52:04;;;;;;;19.00;13.40;;;12.70;99.90;;;;;;5084176;28;20420;-59
2023/10/20 07:54:30;;;;;;;18.30;12.87;;;12.70;99.90;;;;;;5083654;28;20440;-61
2023/10/20 07:56:56;;;;;;;21.67;12.77;;;12.80;99.90;;;;;;5085093;28;20721;-61
2023/10/20 07:59:22;;;;;;;16.83;13.10;;;12.80;99.90;;;;;;5082536;28;20197;-60
2023/10/20 08:01:47;;;;;;;16.17;13.10;;;12.80;99.90;;;;;;5079481;28;20817;-62
2023/10/20 08:04:13;;;;;;;22.20;14.13;;;12.80;99.90;;;;;;5086669;28;20332;-60
2023/10/20 08:06:38;;;;;;;23.60;14.30;;;12.80;99.90;;;;;;5084465;28;20182;-60
2023/10/20 08:09:04;;;;;;;17.93;12.60;;;12.90;99.90;;;;;;5081911;28;20189;-59
2023/10/20 08:11:30;;;;;;;21.33;12.70;;;12.90;99.90;;;;;;5089463;28;20603;-60
2023/10/20 08:13:57;;;;;;;14.33;10.13;;;13.10;99.90;;;;;;5079652;28;20432;-61
2023/10/20 08:16:23;;;;;;;20.17;12.40;;;13.10;99.90;;;;;;5079957;28;22449;-61
2023/10/20 08:18:49;;;;;;;16.03;10.20;;;13.20;99.90;;;;;;5082382;28;20432;-60
2023/10/20 08:21:16;;;;;;;14.53;10.00;;;13.30;99.90;;;;;;5083570;28;21499;-61
2023/10/20 08:23:42;;;;;;;12.00;8.97;;;13.30;99.90;;;;;;5084467;28;20703;-60
2023/10/20 08:26:15;;;;;;;13.53;9.77;;;13.40;99.90;;;;;;5083399;28;20424;-61
2023/10/20 08:28:41;;;;;;;12.10;9.90;;;13.50;99.90;;;;;;5081693;28;20985;-61
2023/10/20 08:31:16;;;;;;;17.17;10.80;;;13.50;99.90;;;;;;5075050;28;20439;-62
2023/10/20 08:33:42;;;;;;;22.00;9.83;;;13.50;99.90;;;;;;5081096;28;20208;-60
2023/10/20 08:36:13;;;;;;;11.77;9.50;;;13.60;99.90;;;;;;5077710;28;20423;-61
2023/10/20 08:38:39;;;;;;;14.30;10.17;;;13.50;99.90;;;;;;5081126;28;20455;-60
2023/10/20 08:41:10;;;;;;;12.80;10.07;;;13.60;99.90;;;;;;5083538;28;20441;-60
2023/10/20 08:43:40;;;;;;;14.60;10.17;;;13.60;99.90;;;;;;5081633;28;20947;-60
2023/10/20 08:46:09;;;;;;;15.17;9.90;;;13.60;99.90;;;;;;5080743;28;20428;-61
2023/10/20 08:48:42;;;;;;;12.90;9.00;;;13.60;99.90;;;;;;5081182;28;20487;-61
2023/10/20 08:51:09;;;;;;;16.30;9.07;;;13.70;99.90;;;;;;5076737;28;20436;-61
2023/10/20 08:53:38;;;;;;;12.10;9.30;;;13.70;99.90;;;;;;5083279;28;20810;-60
2023/10/20 08:56:06;;;;;;;21.73;10.13;;;13.70;99.90;;;;;;5078575;28;20412;-58
2023/10/20 08:58:32;;;;;;;12.23;8.80;;;13.70;99.90;;;;;;5077402;28;20927;-60
2023/10/20 09:00:58;;;;;;;17.93;9.10;;;13.80;99.90;;;;;;5078138;28;20503;-61
2023/10/20 09:03:26;;;;;;;14.03;8.83;;;13.90;99.90;;;;;;5071742;28;20326;-60
2023/10/20 09:06:06;;;;;;;17.57;8.73;;;14.00;99.90;;;;;;5077846;28;20463;-60
2023/10/20 09:08:35;;;;;;;13.40;8.37;;;14.00;99.90;;;;;;5076071;28;20455;-60
2023/10/20 09:11:01;;;;;;;9.00;6.30;;;14.10;99.90;;;;;;5077199;28;20424;-59
2023/10/20 09:13:35;;;;;;;10.73;7.47;;;14.20;99.90;;;;;;5079336;28;20488;-61
2023/10/20 09:16:03;;;;;;;9.60;7.27;;;14.30;99.90;;;;;;5081836;28;20424;-59
2023/10/20 09:18:31;;;;;;;9.10;6.80;;;14.50;99.90;;;;;;5079637;28;20459;-59
2023/10/20 09:21:06;;;;;;;8.70;5.97;;;14.70;99.90;;;;;;5078849;28;20785;-60
2023/10/20 09:23:32;;;;;;;6.13;5.53;;;14.90;99.90;;;;;;5081167;28;20961;-57
2023/10/20 09:25:58;;;;;;;10.20;6.50;;;15.10;99.90;;;;;;5075315;28;20435;-57
2023/10/20 09:28:23;;;;;;;14.60;2.80;;;15.30;99.90;;;;;;5086044;28;20458;-59
2023/10/20 09:30:50;;;;;;;4.20;2.60;;;15.40;99.90;;;;;;5085679;28;20435;-59
2023/10/20 09:33:15;;;;;;;2.67;2.20;;;15.40;99.90;;;;;;5090061;28;20549;-58
2023/10/20 09:35:41;;;;;;;1.73;1.63;;;15.40;99.90;;;;;;5082933;28;20441;-63
2023/10/20 09:38:12;;;;;;;1.87;1.70;;;15.50;99.90;;;;;;5080863;28;20276;-60
2023/10/20 09:40:40;;;;;;;1.40;1.30;;;15.50;99.90;;;;;;5082776;28;20188;-60
2023/10/20 09:43:29;;;;;;;1.20;1.10;;;15.50;99.90;;;;;;5084572;28;20439;-55
2023/10/20 09:46:18;;;;;;;1.87;1.40;;;15.50;99.90;;;;;;5083843;28;20482;-57
2023/10/20 09:48:46;;;;;;;1.77;1.10;;;15.50;99.90;;;;;;5039118;28;20459;-57
2023/10/20 09:51:15;;;;;;;1.30;1.20;;;15.50;99.90;;;;;;5081305;28;20423;-60
2023/10/20 09:53:42;;;;;;;1.60;1.33;;;15.50;99.90;;;;;;5080895;28;20787;-60
2023/10/20 09:56:08;;;;;;;4.20;1.20;;;15.50;99.90;;;;;;5083214;28;20420;-60
2023/10/20 09:58:36;;;;;;;1.93;0.90;;;15.50;99.90;;;;;;5078386;28;20447;-60
2023/10/20 10:01:03;;;;;;;2.10;1.50;;;15.40;99.90;;;;;;5078277;28;22618;-60
2023/10/20 10:03:40;;;;;;;2.07;1.90;;;15.40;99.90;;;;;;5075387;28;20471;-60
2023/10/20 10:06:24;;;;;;;1.67;1.50;;;15.40;99.90;;;;;;5080061;28;20481;-60
2023/10/20 10:08:53;;;;;;;2.50;1.40;;;15.40;99.90;;;;;;5080896;28;20467;-60
2023/10/20 10:11:29;;;;;;;1.03;1.03;;;15.30;99.90;;;;;;5079224;28;20431;-60
2023/10/20 10:14:01;;;;;;;1.17;1.00;;;15.30;99.90;;;;;;5082940;28;20433;-60
2023/10/20 10:16:26;;;;;;;0.83;0.83;;;15.30;99.90;;;;;;5078034;28;20435;-60
2023/10/20 10:18:54;;;;;;;4.03;1.33;;;15.30;99.90;;;;;;5082129;28;20451;-60
2023/10/20 10:21:25;;;;;;;2.13;0.90;;;15.30;99.90;;;;;;5087047;28;20632;-60
2023/10/20 10:24:13;;;;;;;0.90;0.90;;;15.30;99.90;;;;;;5077729;28;20459;-57
2023/10/20 10:26:55;;;;;;;0.60;0.60;;;15.30;99.90;;;;;;5074270;28;20427;-60
2023/10/20 10:29:53;;;;;;;0.90;0.90;;;15.30;99.90;;;;;;5085219;28;20921;-60
2023/10/20 10:32:26;;;;;;;2.07;1.20;;;15.30;99.90;;;;;;5078534;28;20527;-59
2023/10/20 10:34:52;;;;;;;1.00;1.00;;;15.30;99.90;;;;;;5078805;28;20443;-60
2023/10/20 10:37:33;;;;;;;1.77;1.03;;;15.30;99.90;;;;;;5083892;28;20537;-59
2023/10/20 10:40:10;;;;;;;1.13;1.07;;;15.30;99.90;;;;;;5085623;28;20447;-60
2023/10/20 10:42:38;;;;;;;2.07;0.93;;;15.30;99.90;;;;;;5080779;28;20436;-60
2023/10/20 10:45:18;;;;;;;1.00;0.90;;;15.30;99.90;;;;;;5078773;28;20961;-59
2023/10/20 10:47:45;;;;;;;0.80;0.80;;;15.30;99.90;;;;;;5079673;28;20515;-59
2023/10/20 10:50:11;;;;;;;2.40;0.90;;;15.30;99.90;;;;;;5083565;28;20442;-60
2023/10/20 10:52:36;;;;;;;1.47;1.10;;;15.30;99.90;;;;;;5087131;28;20930;-60
2023/10/20 10:55:03;;;;;;;3.63;1.00;;;15.30;99.90;;;;;;5082490;28;20190;-60
2023/10/20 10:57:30;;;;;;;1.10;0.90;;;15.30;99.90;;;;;;5080643;28;20212;-60
2023/10/20 10:59:56;;;;;;;0.97;0.90;;;15.30;99.90;;;;;;5080052;28;20434;-60
2023/10/20 11:02:22;;;;;;;1.07;0.90;;;15.40;99.90;;;;;;5080240;28;20436;-60
2023/10/20 11:04:48;;;;;;;1.27;1.10;;;15.40;99.90;;;;;;5082138;28;20505;-59
2023/10/20 11:07:15;;;;;;;1.73;1.57;;;15.40;99.90;;;;;;5082913;28;20852;-60
2023/10/20 11:09:41;;;;;;;3.50;0.90;;;15.40;99.90;;;;;;5080846;28;20217;-60
2023/10/20 11:12:13;;;;;;;1.20;1.10;;;15.40;99.90;;;;;;5085257;28;20488;-59
2023/10/20 11:14:39;;;;;;;9.10;1.00;;;15.30;99.90;;;;;;5084021;28;20436;-60
2023/10/20 11:17:05;;;;;;;0.80;0.70;;;15.30;99.90;;;;;;5088014;28;21535;-59
2023/10/20 11:19:31;;;;;;;0.83;0.70;;;15.20;99.90;;;;;;5084884;28;20523;-58
2023/10/20 11:21:57;;;;;;;0.70;0.70;;;15.30;99.90;;;;;;5083367;28;20431;-61
2023/10/20 11:24:25;;;;;;;0.87;0.87;;;15.30;99.90;;;;;;5085476;28;20206;-60
2023/10/20 11:27:09;;;;;;;1.43;0.83;;;15.30;99.90;;;;;;5090143;28;20177;-60
2023/10/20 11:29:36;;;;;;;2.80;0.80;;;15.20;99.90;;;;;;5084386;28;20461;-60
2023/10/20 11:32:07;;;;;;;2.83;1.10;;;15.20;99.90;;;;;;5070819;28;20512;-58
2023/10/20 11:34:36;;;;;;;0.67;0.67;;;15.20;99.90;;;;;;5073713;28;20431;-59
2023/10/20 11:37:04;;;;;;;1.93;0.80;;;15.20;99.90;;;;;;5079941;28;20471;-59
2023/10/20 11:39:31;;;;;;;0.90;0.83;;;15.20;99.90;;;;;;5074923;28;20509;-60
2023/10/20 11:41:57;;;;;;;0.83;0.70;;;15.20;99.90;;;;;;5076087;28;20435;-60
2023/10/20 11:44:26;;;;;;;1.33;0.80;;;15.20;99.90;;;;;;5078917;28;21177;-60
2023/10/20 11:46:55;;;;;;;0.80;0.80;;;15.10;99.90;;;;;;5077616;28;20182;-60
2023/10/20 11:49:23;;;;;;;5.43;0.90;;;15.10;99.90;;;;;;5073990;28;20448;-60
2023/10/20 11:51:48;;;;;;;0.93;0.83;;;15.00;99.90;;;;;;5072663;28;20470;-57
2023/10/20 11:54:14;;;;;;;2.43;0.83;;;15.00;99.90;;;;;;5077505;28;20451;-60
2023/10/20 11:56:40;;;;;;;0.60;0.60;;;14.90;99.90;;;;;;5074519;28;20481;-59
2023/10/20 11:59:07;;;;;;;1.73;0.80;;;14.90;99.90;;;;;;5074774;28;20237;-58
2023/10/20 12:01:33;;;;;;;1.53;1.10;;;14.90;99.90;;;;;;5076651;28;20440;-59
2023/10/20 12:04:00;;;;;;;1.50;1.40;;;14.90;99.90;;;;;;5074805;28;20967;-60
2023/10/20 12:06:26;;;;;;;5.20;2.00;;;14.90;99.90;;;;;;5075368;28;20668;-60
2023/10/20 12:08:52;;;;;;;0.90;0.80;;;15.00;99.90;;;;;;5077248;28;20536;-61
2023/10/20 12:11:18;;;;;;;1.10;0.90;;;15.00;99.90;;;;;;5078911;28;20228;-61
2023/10/20 12:13:48;;;;;;;0.73;0.70;;;15.00;99.90;;;;;;5076674;28;20227;-61
2023/10/20 12:16:14;;;;;;;0.80;0.80;;;15.00;99.90;;;;;;5074924;28;21154;-60
2023/10/20 12:18:42;;;;;;;1.10;1.00;;;15.00;99.90;;;;;;5078961;28;22073;-61
2023/10/20 12:21:07;;;;;;;0.93;0.83;;;14.90;99.90;;;;;;5080643;28;20966;-60
2023/10/20 12:23:34;;;;;;;2.47;1.00;;;14.80;99.90;;;;;;5084540;28;20474;-60
2023/10/20 12:25:59;;;;;;;1.10;0.90;;;14.70;99.90;;;;;;5081927;28;20202;-60
2023/10/20 12:28:26;;;;;;;1.97;1.60;;;14.70;99.90;;;;;;5072460;28;20515;-60
2023/10/20 12:30:52;;;;;;;1.00;0.80;;;14.70;99.90;;;;;;5070046;28;20186;-60
2023/10/20 12:33:17;;;;;;;0.80;0.80;;;14.70;99.90;;;;;;5082747;28;20443;-59
2023/10/20 12:35:43;;;;;;;0.70;0.70;;;14.70;99.90;;;;;;5084529;28;20177;-60
2023/10/20 12:38:09;;;;;;;1.30;1.20;;;14.70;99.90;;;;;;5082539;28;20250;-60
2023/10/20 12:40:39;;;;;;;0.80;0.80;;;14.60;99.90;;;;;;5085838;28;20844;-60
2023/10/20 12:43:09;;;;;;;2.23;0.80;;;14.60;99.90;;;;;;5081351;28;20523;-58
2023/10/20 12:45:39;;;;;;;1.17;1.00;;;14.50;99.90;;;;;;5080928;28;20451;-57
2023/10/20 12:48:06;;;;;;;1.07;0.80;;;14.60;99.90;;;;;;5081194;28;20452;-60
2023/10/20 12:50:36;;;;;;;1.37;0.83;;;14.50;99.90;;;;;;5086610;28;20430;-59
2023/10/20 12:53:02;;;;;;;0.70;0.70;;;14.40;99.90;;;;;;5089139;28;20470;-59
2023/10/20 12:55:30;;;;;;;0.80;0.60;;;14.40;99.90;;;;;;5084379;28;20946;-60
2023/10/20 12:57:56;;;;;;;0.70;0.70;;;14.40;99.90;;;;;;5086751;28;20459;-60
2023/10/20 13:00:22;;;;;;;1.13;1.00;;;14.30;99.90;;;;;;5079805;28;20459;-60
2023/10/20 13:02:52;;;;;;;3.03;0.90;;;14.30;99.90;;;;;;5073685;28;20793;-60
2023/10/20 13:05:19;;;;;;;1.13;0.80;;;14.20;99.90;;;;;;5080111;28;20571;-59
2023/10/20 13:07:44;;;;;;;1.00;0.70;;;14.20;99.90;;;;;;5085410;28;20495;-60
2023/10/20 13:10:10;;;;;;;0.90;0.80;;;14.20;99.90;;;;;;5080345;28;20460;-56
2023/10/20 13:12:37;;;;;;;1.00;0.90;;;14.10;99.90;;;;;;5076496;28;20552;-60
2023/10/20 13:15:04;;;;;;;1.00;0.90;;;14.10;99.90;;;;;;5079533;28;20435;-59
2023/10/20 13:17:33;;;;;;;1.60;0.87;;;14.00;99.90;;;;;;5083815;28;20548;-61